Time;durP1;ratioP1;P1;durP2;ratioP2;P2;SDS_P1;SDS_P2;PMS_P1;PMS_P2;Temp;Humidity;BMP_temperature;BMP_pressure;BME280_temperature;BME280_humidity;BME280_pressure;Samples;Min_cycle;Max_cycle;Signal;HPM_P1;HPM_P2
2021/05/08 00:01:22;;;;;;;3.87;3.00;;;4.40;99.90;;;;;;5138069;28;20150;-83
2021/05/08 00:03:48;;;;;;;3.63;3.27;;;4.30;99.90;;;;;;5138134;28;20178;-83
2021/05/08 00:06:14;;;;;;;4.33;2.73;;;4.30;99.90;;;;;;5130505;28;20431;-84
2021/05/08 00:08:40;;;;;;;4.20;3.50;;;4.10;99.90;;;;;;5087895;28;20204;-83
2021/05/08 00:11:06;;;;;;;3.63;3.30;;;4.00;99.90;;;;;;5124443;28;20564;-83
2021/05/08 00:13:32;;;;;;;4.67;4.27;;;4.00;99.90;;;;;;5122968;28;20399;-83
2021/05/08 00:15:58;;;;;;;3.70;3.50;;;3.70;99.90;;;;;;5122878;28;20406;-83
2021/05/08 00:18:24;;;;;;;3.13;2.83;;;3.60;99.90;;;;;;5122385;28;20388;-83
2021/05/08 00:20:49;;;;;;;6.93;4.50;;;3.50;99.90;;;;;;5122179;28;20375;-83
2021/05/08 00:23:15;;;;;;;4.00;3.50;;;3.50;99.90;;;;;;5122533;28;20269;-83
2021/05/08 00:25:41;;;;;;;4.77;3.93;;;3.60;99.90;;;;;;5103498;28;20178;-82
2021/05/08 00:28:08;;;;;;;4.13;3.80;;;3.30;99.90;;;;;;5103357;28;20842;-83
2021/05/08 00:30:34;;;;;;;3.43;3.13;;;3.60;99.90;;;;;;5103402;28;20238;-83
2021/05/08 00:33:01;;;;;;;15.53;4.50;;;3.70;99.90;;;;;;5122031;28;20391;-84
2021/05/08 00:35:26;;;;;;;5.30;3.73;;;3.60;99.90;;;;;;5104436;28;20414;-83
2021/05/08 00:37:52;;;;;;;4.13;3.73;;;3.50;99.90;;;;;;5122284;28;20851;-83
2021/05/08 00:40:18;;;;;;;4.17;3.57;;;3.60;99.90;;;;;;5122082;28;20214;-83
2021/05/08 00:42:47;;;;;;;4.57;3.80;;;3.70;99.90;;;;;;5121772;28;20199;-83
2021/05/08 00:45:13;;;;;;;4.23;3.87;;;3.70;99.90;;;;;;5069596;28;20558;-83
2021/05/08 00:47:45;;;;;;;6.00;3.70;;;3.60;99.90;;;;;;5121252;28;20242;-83
2021/05/08 00:50:13;;;;;;;3.37;3.07;;;3.70;99.90;;;;;;5122385;28;20476;-83
2021/05/08 00:52:39;;;;;;;4.33;3.30;;;3.60;99.90;;;;;;5070153;28;20366;-83
2021/05/08 00:55:07;;;;;;;6.23;3.73;;;3.50;99.90;;;;;;5058786;28;20473;-83
2021/05/08 00:57:33;;;;;;;4.43;4.03;;;3.60;99.90;;;;;;5058671;28;20389;-83
2021/05/08 00:59:59;;;;;;;7.17;3.77;;;3.50;99.90;;;;;;5021658;28;20747;-83
2021/05/08 01:02:25;;;;;;;3.90;3.57;;;3.40;99.90;;;;;;5038506;28;20538;-84
2021/05/08 01:04:51;;;;;;;4.70;4.30;;;3.50;99.90;;;;;;5038366;28;20393;-83
2021/05/08 01:07:18;;;;;;;3.87;3.57;;;3.40;99.90;;;;;;5038722;28;20719;-83
2021/05/08 01:09:45;;;;;;;4.30;3.90;;;3.60;99.90;;;;;;5038794;28;20897;-82
2021/05/08 01:12:14;;;;;;;4.07;3.20;;;3.60;99.90;;;;;;5038457;28;20437;-82
2021/05/08 01:14:41;;;;;;;3.83;3.50;;;3.70;99.90;;;;;;5038520;28;20378;-83
2021/05/08 01:17:07;;;;;;;4.83;4.40;;;3.80;99.90;;;;;;5038442;28;20358;-83
2021/05/08 01:19:35;;;;;;;4.77;4.37;;;3.90;99.90;;;;;;5038008;28;20472;-83
2021/05/08 01:22:04;;;;;;;4.83;3.53;;;3.90;99.90;;;;;;5005062;28;20442;-82
2021/05/08 01:24:30;;;;;;;4.77;4.37;;;3.80;99.90;;;;;;5038217;28;20402;-82
2021/05/08 01:26:56;;;;;;;4.87;4.47;;;3.70;99.90;;;;;;5051867;28;20901;-84
2021/05/08 01:29:22;;;;;;;6.40;3.63;;;3.70;99.90;;;;;;5078302;28;20592;-83
2021/05/08 01:31:47;;;;;;;4.40;4.00;;;3.80;99.90;;;;;;5114461;28;20642;-83
2021/05/08 01:34:13;;;;;;;5.10;4.70;;;4.00;99.90;;;;;;5120691;28;20405;-83
2021/05/08 01:36:41;;;;;;;4.83;4.43;;;3.70;99.90;;;;;;5103600;28;20271;-84
2021/05/08 01:39:07;;;;;;;4.03;3.67;;;3.40;99.90;;;;;;5122426;28;20395;-84
2021/05/08 01:41:33;;;;;;;3.77;3.43;;;3.40;99.90;;;;;;5099492;28;20895;-84
2021/05/08 01:43:59;;;;;;;4.63;3.93;;;3.40;99.90;;;;;;5114797;28;20410;-84
2021/05/08 01:46:25;;;;;;;5.37;3.83;;;3.40;99.90;;;;;;5122905;28;20235;-84
2021/05/08 01:48:51;;;;;;;5.53;3.67;;;3.20;99.90;;;;;;5136428;28;20395;-83
2021/05/08 01:51:16;;;;;;;3.50;3.20;;;3.20;99.90;;;;;;5139547;28;20187;-84
2021/05/08 01:53:42;;;;;;;4.77;4.27;;;3.30;99.90;;;;;;5139648;28;20147;-83
2021/05/08 01:56:08;;;;;;;5.13;4.10;;;3.20;99.90;;;;;;5138002;28;20225;-83
2021/05/08 01:58:35;;;;;;;3.53;3.23;;;3.30;99.90;;;;;;5129566;28;20215;-83
2021/05/08 02:01:02;;;;;;;4.60;4.20;;;3.30;99.90;;;;;;5104770;28;20396;-83
2021/05/08 02:03:28;;;;;;;3.70;3.40;;;3.20;99.90;;;;;;5122838;28;20407;-83
2021/05/08 02:05:54;;;;;;;6.20;3.80;;;3.00;99.90;;;;;;5122245;28;20378;-84
2021/05/08 02:08:20;;;;;;;4.57;3.70;;;3.10;99.90;;;;;;5122184;28;20397;-84
2021/05/08 02:10:46;;;;;;;3.37;3.07;;;3.20;99.90;;;;;;5125157;28;20480;-84
2021/05/08 02:13:13;;;;;;;4.13;3.73;;;3.30;99.90;;;;;;5139779;28;20391;-82
2021/05/08 02:15:40;;;;;;;5.63;5.03;;;3.40;99.90;;;;;;5122247;28;20454;-82
2021/05/08 02:18:07;;;;;;;3.67;3.37;;;3.60;99.90;;;;;;5139472;28;20407;-83
2021/05/08 02:20:37;;;;;;;5.10;4.20;;;3.50;99.90;;;;;;5139640;28;20354;-83
2021/05/08 02:23:06;;;;;;;5.07;4.47;;;3.30;99.90;;;;;;5105096;28;20410;-83
2021/05/08 02:25:33;;;;;;;5.70;3.50;;;3.20;99.90;;;;;;5132818;28;20370;-83
2021/05/08 02:27:59;;;;;;;9.27;4.43;;;3.10;99.90;;;;;;5135678;28;20441;-83
2021/05/08 02:30:28;;;;;;;5.30;4.63;;;2.90;99.90;;;;;;5120628;28;20367;-84
2021/05/08 02:32:55;;;;;;;4.80;3.77;;;2.80;99.90;;;;;;5120882;28;20378;-83
2021/05/08 02:35:22;;;;;;;5.27;4.33;;;2.90;99.90;;;;;;5120693;28;20457;-83
2021/05/08 02:37:49;;;;;;;4.37;3.90;;;3.00;99.90;;;;;;5120061;28;20458;-83
2021/05/08 02:40:17;;;;;;;4.53;4.23;;;2.80;99.90;;;;;;5119746;28;20399;-83
2021/05/08 02:42:43;;;;;;;5.10;4.20;;;2.80;99.90;;;;;;5101925;28;20734;-83
2021/05/08 02:45:10;;;;;;;5.20;3.47;;;2.70;99.90;;;;;;5120221;28;20422;-83
2021/05/08 02:47:38;;;;;;;5.90;4.90;;;2.60;99.90;;;;;;5101800;28;20396;-83
2021/05/08 02:50:06;;;;;;;4.37;3.90;;;2.80;99.90;;;;;;5120383;28;20515;-83
2021/05/08 02:52:32;;;;;;;3.63;3.33;;;2.70;99.90;;;;;;5120044;28;20374;-83
2021/05/08 02:54:58;;;;;;;4.40;4.00;;;2.70;99.90;;;;;;5119815;28;20414;-83
2021/05/08 02:57:23;;;;;;;5.77;3.77;;;2.70;99.90;;;;;;5119556;28;20260;-83
2021/05/08 02:59:49;;;;;;;4.57;4.17;;;2.70;99.90;;;;;;5119772;28;20162;-83
2021/05/08 03:02:15;;;;;;;4.73;4.33;;;2.80;99.90;;;;;;5120335;28;20185;-83
2021/05/08 03:04:41;;;;;;;5.67;4.30;;;2.80;99.90;;;;;;5119632;28;20201;-83
2021/05/08 03:07:07;;;;;;;3.77;3.40;;;2.80;99.90;;;;;;5119840;28;20394;-83
2021/05/08 03:09:33;;;;;;;4.63;3.93;;;2.90;99.90;;;;;;5101612;28;20244;-83
2021/05/08 03:12:01;;;;;;;5.07;4.47;;;3.00;99.90;;;;;;5101165;28;20215;-83
2021/05/08 03:14:27;;;;;;;6.40;5.80;;;3.10;99.90;;;;;;5118820;28;20374;-83
2021/05/08 03:16:53;;;;;;;4.70;3.93;;;3.10;99.90;;;;;;5101026;28;20756;-83
2021/05/08 03:19:18;;;;;;;4.90;4.50;;;3.00;99.90;;;;;;5119289;28;20355;-83
2021/05/08 03:21:45;;;;;;;4.00;3.60;;;3.00;99.90;;;;;;5119085;28;20370;-83
2021/05/08 03:24:11;;;;;;;4.27;3.90;;;3.10;99.90;;;;;;5118630;28;20158;-83
2021/05/08 03:26:37;;;;;;;4.63;4.23;;;3.20;99.90;;;;;;5118481;28;20378;-83
2021/05/08 03:29:04;;;;;;;5.83;4.70;;;3.30;99.90;;;;;;5100430;28;20378;-83
2021/05/08 03:31:31;;;;;;;5.37;4.97;;;3.40;99.90;;;;;;5119157;28;20359;-83
2021/05/08 03:33:57;;;;;;;5.13;4.53;;;3.40;99.90;;;;;;5083696;28;20392;-83
2021/05/08 03:36:23;;;;;;;6.57;4.10;;;3.30;99.90;;;;;;5118798;28;20430;-83
2021/05/08 03:38:48;;;;;;;5.17;4.27;;;3.20;99.90;;;;;;5119077;28;20369;-82
2021/05/08 03:41:14;;;;;;;4.80;4.20;;;2.90;99.90;;;;;;5081341;28;20412;-83
2021/05/08 03:43:40;;;;;;;4.60;4.20;;;2.90;99.90;;;;;;5122009;28;20209;-83
2021/05/08 03:46:06;;;;;;;4.93;4.40;;;2.70;99.90;;;;;;5122747;28;20162;-83
2021/05/08 03:48:32;;;;;;;4.67;4.27;;;2.70;99.90;;;;;;5122854;28;20166;-83
2021/05/08 03:50:58;;;;;;;4.30;4.03;;;2.60;99.90;;;;;;5123099;28;20162;-83
2021/05/08 03:53:24;;;;;;;8.50;5.30;;;2.60;99.90;;;;;;5123364;28;20388;-83
2021/05/08 03:55:51;;;;;;;5.00;3.90;;;2.60;99.90;;;;;;5122971;28;20288;-83
2021/05/08 03:58:25;;;;;;;6.37;4.10;;;2.50;99.90;;;;;;5122952;28;20366;-83
2021/05/08 04:00:51;;;;;;;4.40;4.00;;;2.50;99.90;;;;;;5097188;28;20359;-83
2021/05/08 04:03:17;;;;;;;4.20;3.83;;;2.50;99.90;;;;;;5122571;28;20388;-83
2021/05/08 04:05:43;;;;;;;3.97;3.57;;;2.90;99.90;;;;;;5103988;28;20695;-83
2021/05/08 04:08:08;;;;;;;6.10;4.43;;;3.10;99.90;;;;;;5122300;28;20427;-83
2021/05/08 04:10:34;;;;;;;6.43;4.70;;;3.20;99.90;;;;;;5122277;28;20551;-82
2021/05/08 04:13:00;;;;;;;8.40;5.93;;;3.30;99.90;;;;;;5103589;28;20158;-82
2021/05/08 04:15:26;;;;;;;6.33;5.03;;;3.20;99.90;;;;;;5121649;28;20432;-82
2021/05/08 04:17:52;;;;;;;4.83;4.43;;;3.30;99.90;;;;;;5122174;28;20158;-82
2021/05/08 04:20:18;;;;;;;8.30;5.50;;;3.30;99.90;;;;;;5122418;28;20165;-82
2021/05/08 04:22:43;;;;;;;5.40;4.87;;;3.50;99.90;;;;;;5104132;28;20194;-82
2021/05/08 04:25:10;;;;;;;3.37;3.00;;;3.80;99.90;;;;;;5122622;28;20391;-82
2021/05/08 04:27:35;;;;;;;6.30;4.97;;;3.80;99.90;;;;;;5121846;28;20162;-82
2021/05/08 04:30:01;;;;;;;4.67;4.23;;;4.10;99.90;;;;;;5121593;28;20751;-82
2021/05/08 04:32:27;;;;;;;6.90;4.83;;;4.00;99.90;;;;;;5122442;28;20661;-82
2021/05/08 04:34:53;;;;;;;4.40;4.00;;;3.80;99.90;;;;;;5122405;28;20370;-82
2021/05/08 04:37:19;;;;;;;11.10;4.53;;;3.70;99.90;;;;;;5122408;28;20154;-83
2021/05/08 04:39:45;;;;;;;7.80;5.30;;;3.70;99.90;;;;;;5104164;28;20544;-83
2021/05/08 04:42:11;;;;;;;7.80;4.23;;;3.60;99.90;;;;;;5122548;28;20595;-83
2021/05/08 04:44:37;;;;;;;6.13;4.53;;;4.00;99.90;;;;;;5122353;28;20455;-83
2021/05/08 04:47:04;;;;;;;9.00;5.03;;;4.10;99.90;;;;;;5122511;28;20150;-82
2021/05/08 04:49:30;;;;;;;6.43;5.00;;;4.30;99.90;;;;;;5122930;28;20159;-83
2021/05/08 04:51:56;;;;;;;4.53;3.87;;;4.50;99.90;;;;;;5123261;28;20397;-83
2021/05/08 04:54:22;;;;;;;6.23;4.80;;;4.20;99.90;;;;;;5122793;28;20370;-83
2021/05/08 04:56:48;;;;;;;5.40;4.90;;;4.10;99.90;;;;;;5124474;28;20263;-83
2021/05/08 04:59:14;;;;;;;4.67;4.27;;;4.00;99.90;;;;;;5127130;28;20366;-83
2021/05/08 05:01:41;;;;;;;5.97;4.60;;;3.80;99.90;;;;;;5127782;28;20474;-83
2021/05/08 05:04:06;;;;;;;5.57;4.90;;;4.20;99.90;;;;;;5106520;28;20369;-83
2021/05/08 05:06:32;;;;;;;6.07;5.03;;;4.10;99.90;;;;;;5122749;28;20449;-83
2021/05/08 05:08:58;;;;;;;6.70;5.23;;;4.30;99.90;;;;;;5122589;28;20190;-83
2021/05/08 05:11:24;;;;;;;5.13;4.50;;;4.40;99.90;;;;;;5122459;28;20500;-83
2021/05/08 05:13:50;;;;;;;5.13;4.63;;;4.70;99.90;;;;;;5122882;28;20410;-83
2021/05/08 05:16:16;;;;;;;7.00;6.23;;;4.70;99.90;;;;;;5104023;28;20444;-83
2021/05/08 05:18:42;;;;;;;5.27;4.77;;;4.60;99.90;;;;;;5122337;28;20506;-84
2021/05/08 05:21:08;;;;;;;8.03;5.40;;;4.60;99.90;;;;;;5122425;28;20365;-83
2021/05/08 05:23:35;;;;;;;5.47;4.60;;;4.60;99.90;;;;;;5104341;28;20421;-83
2021/05/08 05:26:01;;;;;;;5.23;4.73;;;4.50;99.90;;;;;;5123259;28;20374;-83
2021/05/08 05:28:29;;;;;;;4.43;4.13;;;4.50;99.90;;;;;;5123373;28;20402;-83
2021/05/08 05:30:56;;;;;;;5.80;4.87;;;4.60;99.90;;;;;;5139287;28;20433;-82
2021/05/08 05:33:22;;;;;;;9.10;4.47;;;4.50;99.90;;;;;;5105664;28;20475;-82
2021/05/08 05:35:49;;;;;;;5.43;4.50;;;4.60;99.90;;;;;;5140055;28;20478;-82
2021/05/08 05:38:16;;;;;;;4.33;3.60;;;4.80;99.90;;;;;;5120962;28;20424;-82
2021/05/08 05:40:43;;;;;;;6.43;4.10;;;4.60;99.90;;;;;;5137257;28;20401;-82
2021/05/08 05:43:09;;;;;;;4.77;4.00;;;4.70;99.90;;;;;;5137770;28;20397;-83
2021/05/08 05:45:35;;;;;;;6.50;4.70;;;4.40;99.90;;;;;;5126768;28;20455;-83
2021/05/08 05:48:03;;;;;;;4.80;4.20;;;4.70;99.90;;;;;;5121880;28;20402;-83
2021/05/08 05:50:29;;;;;;;5.70;5.17;;;4.80;99.90;;;;;;5121626;28;20687;-83
2021/05/08 05:52:55;;;;;;;4.07;3.60;;;5.20;99.90;;;;;;5121593;28;20392;-83
2021/05/08 05:55:22;;;;;;;7.30;5.10;;;5.30;99.90;;;;;;5120958;28;20585;-83
2021/05/08 05:57:49;;;;;;;4.03;3.57;;;5.20;99.90;;;;;;5121246;28;20168;-83
2021/05/08 06:00:16;;;;;;;5.13;4.30;;;5.10;99.90;;;;;;5120474;28;20394;-82
2021/05/08 06:02:42;;;;;;;5.03;4.30;;;5.10;99.90;;;;;;5120738;28;20392;-83
2021/05/08 06:05:08;;;;;;;4.43;4.03;;;5.50;99.90;;;;;;5120426;28;20463;-83
2021/05/08 06:07:34;;;;;;;4.03;3.67;;;5.00;99.90;;;;;;5119973;28;20406;-83
2021/05/08 06:10:00;;;;;;;4.83;3.93;;;5.20;99.90;;;;;;5119946;28;20392;-83
2021/05/08 06:12:26;;;;;;;6.03;5.43;;;5.40;99.90;;;;;;5102784;28;20400;-83
2021/05/08 06:14:52;;;;;;;6.03;4.77;;;5.40;99.90;;;;;;5101967;28;20420;-83
2021/05/08 06:17:17;;;;;;;4.40;4.00;;;5.70;99.90;;;;;;5120788;28;20207;-83
2021/05/08 06:19:43;;;;;;;3.87;3.63;;;5.70;99.90;;;;;;5101409;28;20169;-82
2021/05/08 06:22:09;;;;;;;5.50;4.43;;;5.50;99.90;;;;;;5120017;28;20161;-82
2021/05/08 06:24:35;;;;;;;6.70;4.60;;;5.50;99.90;;;;;;5120594;28;20206;-83
2021/05/08 06:27:01;;;;;;;6.10;4.67;;;5.90;99.90;;;;;;5101879;28;20169;-82
2021/05/08 06:29:26;;;;;;;7.03;4.20;;;6.00;99.90;;;;;;5119539;28;20418;-82
2021/05/08 06:31:52;;;;;;;5.27;4.67;;;6.20;99.90;;;;;;5120145;28;20162;-83
2021/05/08 06:34:18;;;;;;;10.87;5.37;;;6.30;99.90;;;;;;5101106;28;20170;-81
2021/05/08 06:36:45;;;;;;;5.77;5.03;;;6.40;99.90;;;;;;5120435;28;20215;-83
2021/05/08 06:39:11;;;;;;;7.30;5.50;;;6.70;99.90;;;;;;5119968;28;20154;-83
2021/05/08 06:41:37;;;;;;;4.80;3.97;;;6.20;99.90;;;;;;5119940;28;20433;-83
2021/05/08 06:44:03;;;;;;;5.00;4.43;;;6.50;99.90;;;;;;5120866;28;20221;-83
2021/05/08 06:46:29;;;;;;;8.70;5.10;;;6.70;99.90;;;;;;5102486;28;20404;-83
2021/05/08 06:48:55;;;;;;;4.47;4.07;;;6.60;99.90;;;;;;5120043;28;20367;-83
2021/05/08 06:51:21;;;;;;;4.60;4.17;;;6.90;99.90;;;;;;5120009;28;20166;-83
2021/05/08 06:53:47;;;;;;;4.77;4.30;;;7.10;99.90;;;;;;5057017;28;20194;-83
2021/05/08 06:56:13;;;;;;;5.13;4.70;;;6.90;99.90;;;;;;5057276;28;20477;-83
2021/05/08 06:58:40;;;;;;;7.73;4.90;;;6.90;99.90;;;;;;5056761;28;20219;-83
2021/05/08 07:01:06;;;;;;;5.40;3.90;;;7.20;99.90;;;;;;5057199;28;20492;-83
2021/05/08 07:03:32;;;;;;;6.60;4.50;;;7.20;99.90;;;;;;5056216;28;20410;-83
2021/05/08 07:05:58;;;;;;;4.87;4.40;;;7.40;99.90;;;;;;5039744;28;20384;-83
2021/05/08 07:08:24;;;;;;;5.20;4.70;;;7.30;99.90;;;;;;5056727;28;20215;-82
2021/05/08 07:10:51;;;;;;;5.50;5.00;;;7.50;99.90;;;;;;5040107;28;20187;-82
2021/05/08 07:13:18;;;;;;;4.53;4.07;;;7.60;99.90;;;;;;5057026;28;20398;-83
2021/05/08 07:15:44;;;;;;;7.00;6.30;;;7.70;99.90;;;;;;5039514;28;20438;-83
2021/05/08 07:18:10;;;;;;;5.50;5.00;;;7.80;99.90;;;;;;5056318;28;20369;-84
2021/05/08 07:20:39;;;;;;;5.83;4.40;;;7.90;99.90;;;;;;5056468;28;20601;-84
2021/05/08 07:23:05;;;;;;;6.83;4.77;;;8.00;99.90;;;;;;5056922;28;20730;-84
2021/05/08 07:25:35;;;;;;;5.80;5.27;;;8.00;99.90;;;;;;5075106;28;20424;-84
2021/05/08 07:28:10;;;;;;;4.57;4.17;;;8.10;99.90;;;;;;5101712;28;20395;-84
2021/05/08 07:30:37;;;;;;;4.17;3.77;;;8.20;99.90;;;;;;5102599;28;20399;-84
2021/05/08 07:33:03;;;;;;;4.90;4.03;;;8.30;99.90;;;;;;5120070;28;20396;-84
2021/05/08 07:35:29;;;;;;;5.70;5.13;;;8.50;99.90;;;;;;5120089;28;20417;-84
2021/05/08 07:37:55;;;;;;;5.23;4.10;;;8.60;99.90;;;;;;5102334;28;20389;-84
2021/05/08 07:40:23;;;;;;;5.20;4.63;;;8.80;99.90;;;;;;5101318;28;20166;-84
2021/05/08 07:42:49;;;;;;;6.57;4.60;;;9.00;99.90;;;;;;5101637;28;20380;-84
2021/05/08 07:45:15;;;;;;;5.53;5.00;;;9.10;99.90;;;;;;5085109;28;20978;-84
2021/05/08 07:47:41;;;;;;;5.03;4.50;;;9.00;99.90;;;;;;5082497;28;20387;-84
2021/05/08 07:50:08;;;;;;;5.87;4.67;;;9.20;99.90;;;;;;5100087;28;20375;-84
2021/05/08 07:52:35;;;;;;;5.70;4.23;;;9.30;99.90;;;;;;5099432;28;20422;-84
2021/05/08 07:55:01;;;;;;;6.03;3.90;;;9.20;99.90;;;;;;5081482;28;20886;-84
2021/05/08 07:57:27;;;;;;;5.63;5.10;;;9.40;99.90;;;;;;5099523;28;20480;-84
2021/05/08 07:59:52;;;;;;;6.37;4.67;;;9.40;99.90;;;;;;5081911;28;20167;-83
2021/05/08 08:02:18;;;;;;;4.40;4.00;;;9.60;99.90;;;;;;5058680;28;20407;-84
2021/05/08 08:04:44;;;;;;;4.50;4.10;;;9.80;99.90;;;;;;5043602;28;20180;-84
2021/05/08 08:07:10;;;;;;;4.87;4.13;;;9.90;99.90;;;;;;5059278;28;20184;-83
2021/05/08 08:09:36;;;;;;;3.93;3.53;;;9.70;99.90;;;;;;5041538;28;20237;-83
2021/05/08 08:12:02;;;;;;;4.80;4.03;;;10.00;99.90;;;;;;5042553;28;20188;-83
2021/05/08 08:14:27;;;;;;;4.60;4.20;;;10.00;99.90;;;;;;5024915;28;20168;-83
2021/05/08 08:16:53;;;;;;;7.03;4.30;;;9.90;99.90;;;;;;5042398;28;20223;-82
2021/05/08 08:19:21;;;;;;;4.67;4.07;;;10.10;99.90;;;;;;5058441;28;20165;-83
2021/05/08 08:21:47;;;;;;;4.73;4.23;;;10.20;99.90;;;;;;5058196;28;20184;-83
2021/05/08 08:24:19;;;;;;;3.97;3.50;;;10.10;99.90;;;;;;5058467;28;20401;-83
2021/05/08 08:26:45;;;;;;;3.73;3.43;;;10.30;99.90;;;;;;5065930;28;20164;-83
2021/05/08 08:29:11;;;;;;;7.20;5.10;;;10.50;99.90;;;;;;5076858;28;20398;-82
2021/05/08 08:31:36;;;;;;;2.93;2.73;;;10.70;99.90;;;;;;5075806;28;20230;-83
2021/05/08 08:34:02;;;;;;;4.70;3.77;;;10.80;99.90;;;;;;5110355;28;20216;-84
2021/05/08 08:36:28;;;;;;;3.73;3.30;;;10.90;99.90;;;;;;5117247;28;20230;-83
2021/05/08 08:38:54;;;;;;;4.60;4.20;;;11.10;99.90;;;;;;5100948;28;20386;-84
2021/05/08 08:41:22;;;;;;;6.10;4.30;;;11.20;99.90;;;;;;5118051;28;20166;-83
2021/05/08 08:43:48;;;;;;;4.10;3.70;;;11.30;99.90;;;;;;5099377;28;20250;-83
2021/05/08 08:46:15;;;;;;;4.60;3.50;;;11.30;99.90;;;;;;5111929;28;20464;-82
2021/05/08 08:48:46;;;;;;;3.83;3.30;;;11.30;99.90;;;;;;5098157;28;20492;-83
2021/05/08 08:51:15;;;;;;;3.50;3.03;;;11.40;99.90;;;;;;5105515;28;20408;-84
2021/05/08 08:53:42;;;;;;;6.97;4.07;;;11.60;99.90;;;;;;5103237;28;20401;-83
2021/05/08 08:56:14;;;;;;;6.40;3.60;;;11.50;99.90;;;;;;5084473;28;20436;-84
2021/05/08 08:58:44;;;;;;;4.63;4.23;;;11.50;99.90;;;;;;5028512;28;20401;-83
2021/05/08 09:01:10;;;;;;;4.43;3.93;;;11.60;99.90;;;;;;5043187;28;20919;-84
2021/05/08 09:03:36;;;;;;;4.37;3.83;;;11.80;99.90;;;;;;5044187;28;20406;-84
2021/05/08 09:06:15;;;;;;;3.93;3.53;;;11.70;99.90;;;;;;5061091;28;20497;-84
2021/05/08 09:08:41;;;;;;;3.53;3.30;;;11.80;99.90;;;;;;5028437;28;20498;-83
2021/05/08 09:11:24;;;;;;;5.20;3.97;;;11.90;99.90;;;;;;5060113;28;20464;-83
2021/05/08 09:14:20;;;;;;;5.80;4.10;;;12.10;99.90;;;;;;5059518;28;20424;-84
2021/05/08 09:17:05;;;;;;;4.73;2.87;;;12.40;99.90;;;;;;5025730;28;20539;-83
2021/05/08 09:19:31;;;;;;;5.97;3.63;;;12.50;99.90;;;;;;5042691;28;20417;-83
2021/05/08 09:21:58;;;;;;;3.60;3.30;;;12.60;99.90;;;;;;5059685;28;20399;-83
2021/05/08 09:24:24;;;;;;;3.77;3.47;;;12.50;99.90;;;;;;5060268;28;20414;-84
2021/05/08 09:26:53;;;;;;;3.80;3.30;;;12.60;99.90;;;;;;5042508;28;20414;-84
2021/05/08 09:29:23;;;;;;;4.40;4.00;;;12.60;99.90;;;;;;5011965;28;20439;-84
2021/05/08 09:31:59;;;;;;;8.10;5.40;;;12.60;99.90;;;;;;5039915;28;20478;-84
2021/05/08 09:34:25;;;;;;;5.83;4.90;;;12.60;99.90;;;;;;5040166;28;20447;-83
2021/05/08 09:36:54;;;;;;;4.57;4.10;;;12.80;99.90;;;;;;5039785;28;20446;-84
2021/05/08 09:39:32;;;;;;;3.97;3.67;;;13.00;99.90;;;;;;5038873;28;20411;-83
2021/05/08 09:41:58;;;;;;;5.53;3.67;;;12.80;99.90;;;;;;5039468;28;20398;-83
2021/05/08 09:44:24;;;;;;;3.40;3.10;;;13.10;99.90;;;;;;5041260;28;20921;-86
2021/05/08 09:46:55;;;;;;;6.30;4.27;;;13.30;99.90;;;;;;5024515;28;20395;-85
2021/05/08 09:49:21;;;;;;;4.20;3.80;;;13.10;99.90;;;;;;5041737;28;20657;-84
2021/05/08 09:51:59;;;;;;;3.73;3.37;;;13.00;99.90;;;;;;5025130;28;20798;-85
2021/05/08 09:54:25;;;;;;;4.00;3.70;;;13.30;99.90;;;;;;5024908;28;20411;-86
2021/05/08 09:56:51;;;;;;;3.87;3.20;;;13.20;99.90;;;;;;5025623;28;21018;-85
2021/05/08 09:59:35;;;;;;;4.23;3.03;;;13.60;99.90;;;;;;5047540;28;20165;-84
2021/05/08 10:02:20;;;;;;;4.90;3.67;;;13.50;99.90;;;;;;5034539;28;20436;-85
2021/05/08 10:04:48;;;;;;;5.90;3.87;;;13.80;99.90;;;;;;5051653;28;20411;-84
2021/05/08 10:07:16;;;;;;;4.27;3.83;;;14.10;99.90;;;;;;5064563;28;20243;-84
2021/05/08 10:09:44;;;;;;;4.33;3.90;;;13.60;99.90;;;;;;5072197;28;20390;-84
2021/05/08 10:12:15;;;;;;;4.40;3.80;;;13.90;99.90;;;;;;5072977;28;20417;-84
2021/05/08 10:14:43;;;;;;;4.83;4.43;;;13.90;99.90;;;;;;5028599;28;20851;-84
2021/05/08 10:17:12;;;;;;;4.20;3.80;;;13.80;99.90;;;;;;5081870;28;20481;-83
2021/05/08 10:19:40;;;;;;;4.90;3.90;;;13.60;99.90;;;;;;5083698;28;20401;-84
2021/05/08 10:22:15;;;;;;;4.90;4.50;;;13.70;99.90;;;;;;5065263;28;20539;-85
2021/05/08 10:24:44;;;;;;;4.23;3.83;;;13.90;99.90;;;;;;5066244;28;20378;-85
2021/05/08 10:27:10;;;;;;;9.00;5.37;;;13.70;99.90;;;;;;5068026;28;20418;-85
2021/05/08 10:29:39;;;;;;;5.70;4.17;;;14.00;99.90;;;;;;5091182;28;20398;-85
2021/05/08 10:32:07;;;;;;;3.60;3.30;;;14.20;99.90;;;;;;5094173;28;20381;-84
2021/05/08 10:34:37;;;;;;;4.03;3.63;;;14.40;98.40;;;;;;5103031;28;20456;-83
2021/05/08 10:37:06;;;;;;;4.00;3.43;;;14.90;99.90;;;;;;5092855;28;20469;-84
2021/05/08 10:40:06;;;;;;;3.80;3.50;;;14.80;97.30;;;;;;5105781;28;20407;-85
2021/05/08 10:42:44;;;;;;;3.60;3.30;;;15.00;97.00;;;;;;5092161;28;20399;-85
2021/05/08 10:45:31;;;;;;;3.97;3.57;;;15.50;94.80;;;;;;5104717;28;20479;-85
2021/05/08 10:48:12;;;;;;;5.20;3.80;;;15.50;92.70;;;;;;5091521;28;20541;-85
2021/05/08 10:50:42;;;;;;;5.00;3.60;;;15.30;94.50;;;;;;5098486;28;20499;-85
2021/05/08 10:53:11;;;;;;;4.03;3.43;;;15.00;95.90;;;;;;5084167;28;20479;-84
2021/05/08 10:55:48;;;;;;;3.70;2.67;;;15.60;94.60;;;;;;5101925;28;20486;-85
2021/05/08 10:58:35;;;;;;;4.60;3.50;;;15.30;92.90;;;;;;5085906;28;20393;-84
2021/05/08 11:01:08;;;;;;;4.20;3.40;;;15.20;91.00;;;;;;5102087;28;20511;-85
2021/05/08 11:04:02;;;;;;;3.47;3.17;;;15.20;90.10;;;;;;5075324;28;20409;-85
2021/05/08 11:06:28;;;;;;;3.30;3.03;;;15.70;89.70;;;;;;5089022;28;20429;-85
2021/05/08 11:08:54;;;;;;;3.63;2.90;;;15.60;91.30;;;;;;5087084;28;20925;-84
2021/05/08 11:11:24;;;;;;;4.50;3.60;;;15.20;89.20;;;;;;5084583;28;20413;-84
2021/05/08 11:13:54;;;;;;;3.57;3.27;;;15.30;89.50;;;;;;5066776;28;20216;-84
2021/05/08 11:16:24;;;;;;;3.73;2.77;;;14.70;87.70;;;;;;5063756;28;20560;-85
2021/05/08 11:18:53;;;;;;;3.23;2.93;;;15.30;89.10;;;;;;5046955;28;20410;-85
2021/05/08 11:21:44;;;;;;;3.23;2.80;;;15.50;89.20;;;;;;5086869;28;20411;-84
2021/05/08 11:24:13;;;;;;;4.53;3.00;;;15.80;84.80;;;;;;5085336;28;20504;-86
2021/05/08 11:26:41;;;;;;;4.27;3.83;;;16.00;83.60;;;;;;5079177;28;20861;-84
2021/05/08 11:29:19;;;;;;;3.03;2.80;;;15.90;82.00;;;;;;5081961;28;20408;-84
2021/05/08 11:31:51;;;;;;;2.73;2.53;;;16.10;82.10;;;;;;5081882;28;20396;-85
2021/05/08 11:34:20;;;;;;;5.90;4.03;;;16.60;80.50;;;;;;5083365;28;20454;-85
2021/05/08 11:36:59;;;;;;;4.03;3.43;;;16.50;80.50;;;;;;5040814;28;20440;-85
2021/05/08 11:39:27;;;;;;;3.73;3.37;;;16.10;79.40;;;;;;5084689;28;20419;-85
2021/05/08 11:41:57;;;;;;;2.97;2.73;;;16.10;80.10;;;;;;5082146;28;20512;-85
2021/05/08 11:44:26;;;;;;;2.93;2.67;;;16.00;79.20;;;;;;5099041;28;20979;-84
2021/05/08 11:46:56;;;;;;;2.20;2.10;;;15.90;77.60;;;;;;5085040;28;20562;-85
2021/05/08 11:49:24;;;;;;;2.73;2.33;;;16.20;77.80;;;;;;5080069;28;20434;-86
2021/05/08 11:51:50;;;;;;;9.17;4.40;;;16.60;79.00;;;;;;5064531;28;20416;-85
2021/05/08 11:54:16;;;;;;;5.13;4.30;;;16.70;76.00;;;;;;5053508;28;20406;-85
2021/05/08 11:56:42;;;;;;;2.90;2.70;;;16.50;77.20;;;;;;5060305;28;20213;-85
2021/05/08 11:59:08;;;;;;;4.73;2.77;;;16.50;75.50;;;;;;5043871;28;20179;-84
2021/05/08 12:01:34;;;;;;;2.80;2.10;;;17.00;77.00;;;;;;5077685;28;20422;-85
2021/05/08 12:04:06;;;;;;;4.37;2.90;;;17.20;71.80;;;;;;5074451;28;20183;-85
2021/05/08 12:06:33;;;;;;;3.10;2.53;;;17.20;72.80;;;;;;5052305;28;20409;-85
2021/05/08 12:09:09;;;;;;;5.07;3.20;;;17.80;72.00;;;;;;5084018;28;20945;-85
2021/05/08 12:11:38;;;;;;;2.10;1.90;;;17.90;73.40;;;;;;5084800;28;20484;-85
2021/05/08 12:14:17;;;;;;;4.20;2.60;;;18.10;72.40;;;;;;5032789;28;20443;-85
2021/05/08 12:16:44;;;;;;;3.00;2.60;;;17.80;68.30;;;;;;5066975;28;20530;-85
2021/05/08 12:19:11;;;;;;;2.50;2.27;;;17.90;67.40;;;;;;5051424;28;20400;-85
2021/05/08 12:21:40;;;;;;;3.23;2.90;;;18.40;69.30;;;;;;5107708;28;20411;-85
2021/05/08 12:24:11;;;;;;;4.33;3.77;;;17.60;70.00;;;;;;5107817;28;20388;-85
2021/05/08 12:26:48;;;;;;;2.40;2.20;;;17.50;71.70;;;;;;5108328;28;20399;-85
2021/05/08 12:29:14;;;;;;;2.33;2.13;;;18.10;69.50;;;;;;5108439;28;20402;-85
2021/05/08 12:31:46;;;;;;;3.10;2.60;;;18.80;67.90;;;;;;5109301;28;20392;-84
2021/05/08 12:34:14;;;;;;;3.30;2.87;;;18.80;66.20;;;;;;5092408;28;20158;-85
2021/05/08 12:36:41;;;;;;;6.50;3.37;;;18.10;67.50;;;;;;5092931;28;20507;-85
2021/05/08 12:39:23;;;;;;;2.57;2.37;;;18.50;68.50;;;;;;5127533;28;20391;-85
2021/05/08 12:42:04;;;;;;;3.23;2.93;;;19.40;67.80;;;;;;5111598;28;20766;-85
2021/05/08 12:44:37;;;;;;;4.03;2.60;;;19.90;66.20;;;;;;5114214;28;20477;-84
2021/05/08 12:47:17;;;;;;;3.93;2.83;;;20.20;64.90;;;;;;5135980;28;20376;-85
2021/05/08 12:50:28;;;;;;;7.43;3.20;;;20.50;64.90;;;;;;5119847;28;20388;-84
2021/05/08 12:53:09;;;;;;;3.60;2.40;;;21.00;62.60;;;;;;5094204;28;20438;-85
2021/05/08 12:55:37;;;;;;;2.87;2.67;;;20.40;66.90;;;;;;5044531;28;20400;-84
2021/05/08 12:58:11;;;;;;;2.70;2.50;;;20.60;61.50;;;;;;5085355;28;20401;-85